sensor_id;sensor_type;location;lat;lon;timestamp;P1;durP1;ratioP1;P2;durP2;ratioP2
2618;SDS011;1319;52.346;13.096;2022-11-20T00:01:31;23.47;;;12.37;;
2618;SDS011;1319;52.346;13.096;2022-11-20T00:03:57;20.63;;;11.00;;
2618;SDS011;1319;52.346;13.096;2022-11-20T00:06:23;21.90;;;11.33;;
2618;SDS011;1319;52.346;13.096;2022-11-20T00:08:48;21.20;;;11.60;;
2618;SDS011;1319;52.346;13.096;2022-11-20T00:11:15;19.80;;;11.33;;
2618;SDS011;1319;52.346;13.096;2022-11-20T00:13:40;25.90;;;12.20;;
2618;SDS011;1319;52.346;13.096;2022-11-20T00:16:06;23.10;;;12.37;;
2618;SDS011;1319;52.346;13.096;2022-11-20T00:18:32;22.30;;;11.57;;
2618;SDS011;1319;52.346;13.096;2022-11-20T00:21:04;23.67;;;11.67;;
2618;SDS011;1319;52.346;13.096;2022-11-20T00:23:30;20.80;;;11.10;;
2618;SDS011;1319;52.346;13.096;2022-11-20T00:25:55;19.83;;;10.80;;
2618;SDS011;1319;52.346;13.096;2022-11-20T00:28:21;22.33;;;11.63;;
2618;SDS011;1319;52.346;13.096;2022-11-20T00:30:46;21.17;;;11.37;;
2618;SDS011;1319;52.346;13.096;2022-11-20T00:33:11;22.00;;;11.97;;
2618;SDS011;1319;52.346;13.096;2022-11-20T00:35:36;20.13;;;10.57;;
2618;SDS011;1319;52.346;13.096;2022-11-20T00:38:02;22.47;;;11.40;;
2618;SDS011;1319;52.346;13.096;2022-11-20T00:40:27;21.23;;;10.67;;
2618;SDS011;1319;52.346;13.096;2022-11-20T00:42:52;21.00;;;10.80;;
2618;SDS011;1319;52.346;13.096;2022-11-20T00:45:17;20.83;;;11.23;;
2618;SDS011;1319;52.346;13.096;2022-11-20T00:47:43;21.20;;;11.53;;
2618;SDS011;1319;52.346;13.096;2022-11-20T00:50:08;22.67;;;11.43;;
2618;SDS011;1319;52.346;13.096;2022-11-20T00:52:33;20.70;;;11.43;;
2618;SDS011;1319;52.346;13.096;2022-11-20T00:54:59;22.60;;;11.77;;
2618;SDS011;1319;52.346;13.096;2022-11-20T00:57:24;20.33;;;10.63;;
2618;SDS011;1319;52.346;13.096;2022-11-20T00:59:49;22.97;;;11.77;;
2618;SDS011;1319;52.346;13.096;2022-11-20T01:02:14;20.03;;;11.43;;
2618;SDS011;1319;52.346;13.096;2022-11-20T01:04:41;22.03;;;11.77;;
2618;SDS011;1319;52.346;13.096;2022-11-20T01:07:07;22.80;;;12.27;;
2618;SDS011;1319;52.346;13.096;2022-11-20T01:09:32;24.03;;;11.60;;
2618;SDS011;1319;52.346;13.096;2022-11-20T01:11:57;21.60;;;11.17;;
2618;SDS011;1319;52.346;13.096;2022-11-20T01:14:24;22.63;;;12.17;;
2618;SDS011;1319;52.346;13.096;2022-11-20T01:16:49;23.57;;;11.80;;
2618;SDS011;1319;52.346;13.096;2022-11-20T01:19:16;24.37;;;11.63;;
2618;SDS011;1319;52.346;13.096;2022-11-20T01:21:42;21.60;;;11.93;;
2618;SDS011;1319;52.346;13.096;2022-11-20T01:24:10;23.97;;;11.80;;
2618;SDS011;1319;52.346;13.096;2022-11-20T01:26:37;28.40;;;11.87;;
2618;SDS011;1319;52.346;13.096;2022-11-20T01:29:02;24.40;;;11.87;;
2618;SDS011;1319;52.346;13.096;2022-11-20T01:31:32;25.23;;;12.13;;
2618;SDS011;1319;52.346;13.096;2022-11-20T01:34:00;23.97;;;12.13;;
2618;SDS011;1319;52.346;13.096;2022-11-20T01:36:26;27.00;;;12.97;;
2618;SDS011;1319;52.346;13.096;2022-11-20T01:38:52;28.50;;;11.97;;
2618;SDS011;1319;52.346;13.096;2022-11-20T01:41:18;28.43;;;12.90;;
2618;SDS011;1319;52.346;13.096;2022-11-20T01:44:03;27.50;;;13.27;;
2618;SDS011;1319;52.346;13.096;2022-11-20T01:46:28;30.87;;;14.00;;
2618;SDS011;1319;52.346;13.096;2022-11-20T01:48:58;29.57;;;13.43;;
2618;SDS011;1319;52.346;13.096;2022-11-20T01:51:33;26.40;;;12.83;;
2618;SDS011;1319;52.346;13.096;2022-11-20T01:54:00;30.37;;;14.23;;
2618;SDS011;1319;52.346;13.096;2022-11-20T01:56:25;26.77;;;13.63;;
2618;SDS011;1319;52.346;13.096;2022-11-20T01:58:53;28.00;;;12.60;;
2618;SDS011;1319;52.346;13.096;2022-11-20T02:01:19;28.03;;;13.87;;
2618;SDS011;1319;52.346;13.096;2022-11-20T02:03:45;27.77;;;13.57;;
2618;SDS011;1319;52.346;13.096;2022-11-20T02:06:25;29.00;;;13.03;;
2618;SDS011;1319;52.346;13.096;2022-11-20T02:08:51;29.10;;;13.70;;
2618;SDS011;1319;52.346;13.096;2022-11-20T02:11:16;26.20;;;13.43;;
2618;SDS011;1319;52.346;13.096;2022-11-20T02:13:42;32.23;;;14.13;;
2618;SDS011;1319;52.346;13.096;2022-11-20T02:16:31;31.00;;;14.23;;
2618;SDS011;1319;52.346;13.096;2022-11-20T02:18:56;29.93;;;13.90;;
2618;SDS011;1319;52.346;13.096;2022-11-20T02:24:00;28.97;;;13.97;;
2618;SDS011;1319;52.346;13.096;2022-11-20T02:26:26;34.13;;;14.97;;
2618;SDS011;1319;52.346;13.096;2022-11-20T02:28:52;28.07;;;13.70;;
2618;SDS011;1319;52.346;13.096;2022-11-20T02:31:18;28.53;;;13.40;;
2618;SDS011;1319;52.346;13.096;2022-11-20T02:33:43;30.83;;;14.20;;
2618;SDS011;1319;52.346;13.096;2022-11-20T02:36:09;31.97;;;13.93;;
2618;SDS011;1319;52.346;13.096;2022-11-20T02:38:36;27.67;;;13.60;;
2618;SDS011;1319;52.346;13.096;2022-11-20T02:41:01;27.90;;;14.23;;
2618;SDS011;1319;52.346;13.096;2022-11-20T02:43:27;28.77;;;14.10;;
2618;SDS011;1319;52.346;13.096;2022-11-20T02:45:52;29.47;;;14.83;;
2618;SDS011;1319;52.346;13.096;2022-11-20T02:48:17;26.10;;;13.53;;
2618;SDS011;1319;52.346;13.096;2022-11-20T02:50:42;31.17;;;14.30;;
2618;SDS011;1319;52.346;13.096;2022-11-20T02:53:08;32.13;;;15.20;;
2618;SDS011;1319;52.346;13.096;2022-11-20T02:55:33;29.23;;;14.00;;
2618;SDS011;1319;52.346;13.096;2022-11-20T02:57:58;30.07;;;14.40;;
2618;SDS011;1319;52.346;13.096;2022-11-20T03:00:23;31.07;;;14.23;;
2618;SDS011;1319;52.346;13.096;2022-11-20T03:02:49;33.50;;;14.57;;
2618;SDS011;1319;52.346;13.096;2022-11-20T03:05:14;31.40;;;14.30;;
2618;SDS011;1319;52.346;13.096;2022-11-20T03:07:40;30.20;;;15.03;;
2618;SDS011;1319;52.346;13.096;2022-11-20T03:10:05;30.63;;;14.53;;
2618;SDS011;1319;52.346;13.096;2022-11-20T03:12:30;30.63;;;14.87;;
2618;SDS011;1319;52.346;13.096;2022-11-20T03:14:56;31.13;;;14.27;;
2618;SDS011;1319;52.346;13.096;2022-11-20T03:17:21;29.83;;;15.07;;
2618;SDS011;1319;52.346;13.096;2022-11-20T03:19:46;33.37;;;15.63;;
2618;SDS011;1319;52.346;13.096;2022-11-20T03:22:12;32.23;;;15.30;;
2618;SDS011;1319;52.346;13.096;2022-11-20T03:24:37;28.57;;;14.20;;
2618;SDS011;1319;52.346;13.096;2022-11-20T03:27:02;31.03;;;14.73;;
2618;SDS011;1319;52.346;13.096;2022-11-20T03:29:27;30.80;;;14.83;;
2618;SDS011;1319;52.346;13.096;2022-11-20T03:31:53;30.43;;;15.47;;
2618;SDS011;1319;52.346;13.096;2022-11-20T03:34:18;31.13;;;15.27;;
2618;SDS011;1319;52.346;13.096;2022-11-20T03:36:43;30.63;;;13.57;;
2618;SDS011;1319;52.346;13.096;2022-11-20T03:39:09;29.07;;;13.97;;
2618;SDS011;1319;52.346;13.096;2022-11-20T03:41:38;32.20;;;15.40;;
2618;SDS011;1319;52.346;13.096;2022-11-20T03:44:04;30.43;;;13.80;;
2618;SDS011;1319;52.346;13.096;2022-11-20T03:46:30;30.47;;;14.53;;
2618;SDS011;1319;52.346;13.096;2022-11-20T03:48:55;29.67;;;14.60;;
2618;SDS011;1319;52.346;13.096;2022-11-20T03:51:21;33.03;;;15.70;;
2618;SDS011;1319;52.346;13.096;2022-11-20T03:53:47;30.57;;;14.63;;
2618;SDS011;1319;52.346;13.096;2022-11-20T03:56:14;23.90;;;13.07;;
2618;SDS011;1319;52.346;13.096;2022-11-20T03:58:39;27.93;;;13.73;;
2618;SDS011;1319;52.346;13.096;2022-11-20T04:01:09;28.73;;;14.20;;
2618;SDS011;1319;52.346;13.096;2022-11-20T04:03:35;29.87;;;14.30;;
2618;SDS011;1319;52.346;13.096;2022-11-20T04:06:05;29.37;;;14.53;;
2618;SDS011;1319;52.346;13.096;2022-11-20T04:08:30;30.53;;;14.30;;
2618;SDS011;1319;52.346;13.096;2022-11-20T04:10:56;25.63;;;13.63;;
2618;SDS011;1319;52.346;13.096;2022-11-20T04:13:21;35.77;;;13.83;;
2618;SDS011;1319;52.346;13.096;2022-11-20T04:15:46;30.73;;;13.93;;
2618;SDS011;1319;52.346;13.096;2022-11-20T04:18:11;25.50;;;13.97;;
2618;SDS011;1319;52.346;13.096;2022-11-20T04:20:37;30.07;;;14.47;;
2618;SDS011;1319;52.346;13.096;2022-11-20T04:23:02;29.60;;;14.10;;
2618;SDS011;1319;52.346;13.096;2022-11-20T04:25:27;26.10;;;13.47;;
2618;SDS011;1319;52.346;13.096;2022-11-20T04:27:52;29.23;;;14.23;;
2618;SDS011;1319;52.346;13.096;2022-11-20T04:30:18;26.23;;;13.57;;
2618;SDS011;1319;52.346;13.096;2022-11-20T04:32:43;25.13;;;13.73;;
2618;SDS011;1319;52.346;13.096;2022-11-20T04:35:08;27.67;;;14.30;;
2618;SDS011;1319;52.346;13.096;2022-11-20T04:37:33;29.07;;;14.13;;
2618;SDS011;1319;52.346;13.096;2022-11-20T04:39:59;26.63;;;13.80;;
2618;SDS011;1319;52.346;13.096;2022-11-20T04:42:24;24.53;;;12.63;;
2618;SDS011;1319;52.346;13.096;2022-11-20T04:44:56;26.57;;;13.63;;
2618;SDS011;1319;52.346;13.096;2022-11-20T04:47:21;30.13;;;13.97;;
2618;SDS011;1319;52.346;13.096;2022-11-20T04:49:46;30.23;;;13.73;;
2618;SDS011;1319;52.346;13.096;2022-11-20T04:52:12;26.70;;;14.57;;
2618;SDS011;1319;52.346;13.096;2022-11-20T04:54:37;24.07;;;13.47;;
2618;SDS011;1319;52.346;13.096;2022-11-20T04:57:02;27.53;;;14.00;;
2618;SDS011;1319;52.346;13.096;2022-11-20T04:59:27;27.37;;;13.60;;
2618;SDS011;1319;52.346;13.096;2022-11-20T05:01:53;29.20;;;13.47;;
2618;SDS011;1319;52.346;13.096;2022-11-20T05:04:18;23.93;;;13.80;;
2618;SDS011;1319;52.346;13.096;2022-11-20T05:06:43;27.97;;;13.97;;
2618;SDS011;1319;52.346;13.096;2022-11-20T05:09:10;26.27;;;13.80;;
2618;SDS011;1319;52.346;13.096;2022-11-20T05:11:35;27.77;;;14.07;;
2618;SDS011;1319;52.346;13.096;2022-11-20T05:14:00;26.60;;;13.87;;
2618;SDS011;1319;52.346;13.096;2022-11-20T05:16:26;30.33;;;13.93;;
2618;SDS011;1319;52.346;13.096;2022-11-20T05:18:52;29.23;;;14.63;;
2618;SDS011;1319;52.346;13.096;2022-11-20T05:21:17;25.80;;;13.17;;
2618;SDS011;1319;52.346;13.096;2022-11-20T05:23:43;26.93;;;13.03;;
2618;SDS011;1319;52.346;13.096;2022-11-20T05:26:12;29.30;;;14.73;;
2618;SDS011;1319;52.346;13.096;2022-11-20T05:28:37;29.43;;;14.67;;
2618;SDS011;1319;52.346;13.096;2022-11-20T05:31:03;31.60;;;13.90;;
2618;SDS011;1319;52.346;13.096;2022-11-20T05:33:29;29.47;;;14.40;;
2618;SDS011;1319;52.346;13.096;2022-11-20T05:35:57;25.73;;;14.60;;
2618;SDS011;1319;52.346;13.096;2022-11-20T05:38:22;26.40;;;13.90;;
2618;SDS011;1319;52.346;13.096;2022-11-20T05:40:48;26.13;;;13.77;;
2618;SDS011;1319;52.346;13.096;2022-11-20T05:43:13;26.00;;;13.93;;
2618;SDS011;1319;52.346;13.096;2022-11-20T05:45:38;25.53;;;13.83;;
2618;SDS011;1319;52.346;13.096;2022-11-20T05:48:03;27.07;;;13.73;;
2618;SDS011;1319;52.346;13.096;2022-11-20T05:50:29;28.47;;;13.73;;
2618;SDS011;1319;52.346;13.096;2022-11-20T05:52:54;25.57;;;14.03;;
2618;SDS011;1319;52.346;13.096;2022-11-20T05:55:19;24.40;;;13.30;;
2618;SDS011;1319;52.346;13.096;2022-11-20T05:57:45;26.27;;;13.50;;
2618;SDS011;1319;52.346;13.096;2022-11-20T06:00:10;28.73;;;13.97;;
2618;SDS011;1319;52.346;13.096;2022-11-20T06:02:35;27.60;;;14.13;;
2618;SDS011;1319;52.346;13.096;2022-11-20T06:05:01;25.23;;;13.90;;
2618;SDS011;1319;52.346;13.096;2022-11-20T06:07:26;25.80;;;13.53;;
2618;SDS011;1319;52.346;13.096;2022-11-20T06:09:51;27.20;;;14.63;;
2618;SDS011;1319;52.346;13.096;2022-11-20T06:12:16;23.90;;;13.40;;
2618;SDS011;1319;52.346;13.096;2022-11-20T06:14:42;27.80;;;14.07;;
2618;SDS011;1319;52.346;13.096;2022-11-20T06:17:07;25.50;;;14.20;;
2618;SDS011;1319;52.346;13.096;2022-11-20T06:19:32;28.00;;;14.13;;
2618;SDS011;1319;52.346;13.096;2022-11-20T06:21:57;28.63;;;13.73;;
2618;SDS011;1319;52.346;13.096;2022-11-20T06:24:23;26.23;;;13.33;;
2618;SDS011;1319;52.346;13.096;2022-11-20T06:26:50;27.77;;;13.83;;
2618;SDS011;1319;52.346;13.096;2022-11-20T06:29:15;29.00;;;14.23;;
2618;SDS011;1319;52.346;13.096;2022-11-20T06:31:40;26.93;;;14.27;;
2618;SDS011;1319;52.346;13.096;2022-11-20T06:34:07;28.87;;;14.87;;
2618;SDS011;1319;52.346;13.096;2022-11-20T06:36:33;26.57;;;13.47;;
2618;SDS011;1319;52.346;13.096;2022-11-20T06:38:59;29.77;;;13.97;;
2618;SDS011;1319;52.346;13.096;2022-11-20T06:41:24;27.23;;;13.90;;
2618;SDS011;1319;52.346;13.096;2022-11-20T06:43:50;28.37;;;13.73;;
2618;SDS011;1319;52.346;13.096;2022-11-20T06:46:16;28.57;;;13.97;;
2618;SDS011;1319;52.346;13.096;2022-11-20T06:48:44;27.67;;;14.80;;
2618;SDS011;1319;52.346;13.096;2022-11-20T06:51:09;27.07;;;13.60;;
2618;SDS011;1319;52.346;13.096;2022-11-20T06:53:35;30.27;;;13.87;;
2618;SDS011;1319;52.346;13.096;2022-11-20T06:56:01;28.03;;;13.17;;
2618;SDS011;1319;52.346;13.096;2022-11-20T06:58:26;28.60;;;13.63;;
2618;SDS011;1319;52.346;13.096;2022-11-20T07:00:52;24.23;;;13.40;;
2618;SDS011;1319;52.346;13.096;2022-11-20T07:03:18;26.67;;;13.17;;
2618;SDS011;1319;52.346;13.096;2022-11-20T07:05:43;27.23;;;13.20;;
2618;SDS011;1319;52.346;13.096;2022-11-20T07:08:10;28.30;;;14.40;;
2618;SDS011;1319;52.346;13.096;2022-11-20T07:10:35;27.17;;;12.80;;
2618;SDS011;1319;52.346;13.096;2022-11-20T07:13:01;25.70;;;13.27;;
2618;SDS011;1319;52.346;13.096;2022-11-20T07:15:26;29.27;;;14.03;;
2618;SDS011;1319;52.346;13.096;2022-11-20T07:17:52;27.43;;;13.67;;
2618;SDS011;1319;52.346;13.096;2022-11-20T07:20:17;25.53;;;13.03;;
2618;SDS011;1319;52.346;13.096;2022-11-20T07:22:42;26.80;;;13.77;;
2618;SDS011;1319;52.346;13.096;2022-11-20T07:25:07;30.77;;;14.07;;
2618;SDS011;1319;52.346;13.096;2022-11-20T07:27:33;27.03;;;14.37;;
2618;SDS011;1319;52.346;13.096;2022-11-20T07:29:59;27.23;;;13.00;;
2618;SDS011;1319;52.346;13.096;2022-11-20T07:32:24;26.67;;;13.90;;
2618;SDS011;1319;52.346;13.096;2022-11-20T07:34:49;27.73;;;13.73;;
2618;SDS011;1319;52.346;13.096;2022-11-20T07:37:15;29.20;;;14.00;;
2618;SDS011;1319;52.346;13.096;2022-11-20T07:39:40;30.63;;;15.00;;
2618;SDS011;1319;52.346;13.096;2022-11-20T07:42:06;30.50;;;14.37;;
2618;SDS011;1319;52.346;13.096;2022-11-20T07:44:31;29.27;;;13.90;;
2618;SDS011;1319;52.346;13.096;2022-11-20T07:46:56;27.10;;;13.63;;
2618;SDS011;1319;52.346;13.096;2022-11-20T07:49:21;28.27;;;14.23;;
2618;SDS011;1319;52.346;13.096;2022-11-20T07:51:49;27.03;;;14.63;;
2618;SDS011;1319;52.346;13.096;2022-11-20T07:54:14;31.97;;;15.53;;
2618;SDS011;1319;52.346;13.096;2022-11-20T07:56:40;29.23;;;14.60;;
2618;SDS011;1319;52.346;13.096;2022-11-20T07:59:05;28.43;;;14.30;;
2618;SDS011;1319;52.346;13.096;2022-11-20T08:01:30;33.00;;;14.87;;
2618;SDS011;1319;52.346;13.096;2022-11-20T08:03:55;29.40;;;13.70;;
2618;SDS011;1319;52.346;13.096;2022-11-20T08:06:21;29.10;;;14.00;;
2618;SDS011;1319;52.346;13.096;2022-11-20T08:08:46;28.07;;;14.67;;
2618;SDS011;1319;52.346;13.096;2022-11-20T08:11:11;28.77;;;13.87;;
2618;SDS011;1319;52.346;13.096;2022-11-20T08:13:55;27.33;;;13.90;;
2618;SDS011;1319;52.346;13.096;2022-11-20T08:16:43;25.57;;;13.43;;
2618;SDS011;1319;52.346;13.096;2022-11-20T08:19:08;26.80;;;13.90;;
2618;SDS011;1319;52.346;13.096;2022-11-20T08:21:33;27.10;;;14.07;;
2618;SDS011;1319;52.346;13.096;2022-11-20T08:23:59;24.17;;;12.90;;
2618;SDS011;1319;52.346;13.096;2022-11-20T08:26:25;27.13;;;14.03;;
2618;SDS011;1319;52.346;13.096;2022-11-20T08:28:53;24.80;;;13.80;;
2618;SDS011;1319;52.346;13.096;2022-11-20T08:31:19;25.60;;;13.67;;
2618;SDS011;1319;52.346;13.096;2022-11-20T08:33:45;26.13;;;14.33;;
2618;SDS011;1319;52.346;13.096;2022-11-20T08:36:10;24.03;;;13.17;;
2618;SDS011;1319;52.346;13.096;2022-11-20T08:38:35;26.77;;;13.63;;
2618;SDS011;1319;52.346;13.096;2022-11-20T08:41:01;25.83;;;14.27;;
2618;SDS011;1319;52.346;13.096;2022-11-20T08:43:45;24.20;;;13.97;;
2618;SDS011;1319;52.346;13.096;2022-11-20T08:46:11;24.73;;;12.87;;
2618;SDS011;1319;52.346;13.096;2022-11-20T08:48:36;23.30;;;12.87;;
2618;SDS011;1319;52.346;13.096;2022-11-20T08:51:01;27.93;;;13.37;;
2618;SDS011;1319;52.346;13.096;2022-11-20T08:53:27;26.57;;;14.23;;
2618;SDS011;1319;52.346;13.096;2022-11-20T08:55:52;22.63;;;12.63;;
2618;SDS011;1319;52.346;13.096;2022-11-20T08:58:17;27.17;;;13.27;;
2618;SDS011;1319;52.346;13.096;2022-11-20T09:00:43;26.73;;;13.70;;
2618;SDS011;1319;52.346;13.096;2022-11-20T09:03:08;23.00;;;12.80;;
2618;SDS011;1319;52.346;13.096;2022-11-20T09:05:33;22.73;;;13.03;;
2618;SDS011;1319;52.346;13.096;2022-11-20T09:07:59;25.83;;;13.03;;
2618;SDS011;1319;52.346;13.096;2022-11-20T09:10:24;22.07;;;12.60;;
2618;SDS011;1319;52.346;13.096;2022-11-20T09:12:50;23.37;;;13.27;;
2618;SDS011;1319;52.346;13.096;2022-11-20T09:15:16;22.80;;;13.07;;
2618;SDS011;1319;52.346;13.096;2022-11-20T09:17:42;25.37;;;13.57;;
2618;SDS011;1319;52.346;13.096;2022-11-20T09:20:07;23.77;;;13.17;;
2618;SDS011;1319;52.346;13.096;2022-11-20T09:22:33;24.13;;;12.97;;
2618;SDS011;1319;52.346;13.096;2022-11-20T09:24:58;21.40;;;12.10;;
2618;SDS011;1319;52.346;13.096;2022-11-20T09:27:23;23.03;;;12.17;;
2618;SDS011;1319;52.346;13.096;2022-11-20T09:29:49;24.37;;;13.67;;
2618;SDS011;1319;52.346;13.096;2022-11-20T09:32:14;25.87;;;12.90;;
2618;SDS011;1319;52.346;13.096;2022-11-20T09:34:39;23.10;;;12.83;;
2618;SDS011;1319;52.346;13.096;2022-11-20T09:37:05;22.77;;;12.10;;
2618;SDS011;1319;52.346;13.096;2022-11-20T09:39:30;24.00;;;12.23;;
2618;SDS011;1319;52.346;13.096;2022-11-20T09:47:02;22.73;;;12.70;;
2618;SDS011;1319;52.346;13.096;2022-11-20T09:49:49;21.57;;;11.87;;
2618;SDS011;1319;52.346;13.096;2022-11-20T09:54:46;21.47;;;12.07;;
2618;SDS011;1319;52.346;13.096;2022-11-20T09:57:13;24.70;;;13.13;;
2618;SDS011;1319;52.346;13.096;2022-11-20T09:59:51;23.07;;;11.70;;
2618;SDS011;1319;52.346;13.096;2022-11-20T10:04:45;22.43;;;12.60;;
2618;SDS011;1319;52.346;13.096;2022-11-20T10:09:39;22.10;;;12.27;;
2618;SDS011;1319;52.346;13.096;2022-11-20T10:19:53;23.40;;;12.70;;
2618;SDS011;1319;52.346;13.096;2022-11-20T10:22:35;20.83;;;12.30;;
2618;SDS011;1319;52.346;13.096;2022-11-20T10:30:10;19.23;;;10.63;;
2618;SDS011;1319;52.346;13.096;2022-11-20T10:32:37;21.30;;;11.40;;
2618;SDS011;1319;52.346;13.096;2022-11-20T10:35:38;20.40;;;10.80;;
2618;SDS011;1319;52.346;13.096;2022-11-20T10:37:56;20.33;;;11.37;;
2618;SDS011;1319;52.346;13.096;2022-11-20T10:40:28;20.23;;;10.57;;
2618;SDS011;1319;52.346;13.096;2022-11-20T10:42:56;19.13;;;10.20;;
2618;SDS011;1319;52.346;13.096;2022-11-20T10:47:50;19.20;;;10.57;;
2618;SDS011;1319;52.346;13.096;2022-11-20T10:50:18;20.43;;;10.17;;
2618;SDS011;1319;52.346;13.096;2022-11-20T11:00:21;17.43;;;9.73;;
2618;SDS011;1319;52.346;13.096;2022-11-20T11:02:47;17.73;;;9.60;;
2618;SDS011;1319;52.346;13.096;2022-11-20T11:07:51;16.03;;;9.67;;
2618;SDS011;1319;52.346;13.096;2022-11-20T11:10:20;16.93;;;9.20;;
2618;SDS011;1319;52.346;13.096;2022-11-20T11:12:46;18.00;;;8.93;;
2618;SDS011;1319;52.346;13.096;2022-11-20T11:15:29;15.17;;;9.23;;
2618;SDS011;1319;52.346;13.096;2022-11-20T11:17:55;16.67;;;9.30;;
2618;SDS011;1319;52.346;13.096;2022-11-20T11:20:25;15.00;;;9.03;;
2618;SDS011;1319;52.346;13.096;2022-11-20T11:22:51;16.77;;;8.50;;
2618;SDS011;1319;52.346;13.096;2022-11-20T11:25:38;15.30;;;9.13;;
2618;SDS011;1319;52.346;13.096;2022-11-20T11:30:44;12.87;;;8.37;;
2618;SDS011;1319;52.346;13.096;2022-11-20T11:33:10;11.60;;;7.47;;
2618;SDS011;1319;52.346;13.096;2022-11-20T11:35:53;11.00;;;7.47;;
2618;SDS011;1319;52.346;13.096;2022-11-20T11:38:26;13.80;;;7.63;;
2618;SDS011;1319;52.346;13.096;2022-11-20T11:40:53;11.13;;;6.87;;
2618;SDS011;1319;52.346;13.096;2022-11-20T11:43:22;15.10;;;7.77;;
2618;SDS011;1319;52.346;13.096;2022-11-20T11:46:40;13.10;;;8.17;;
2618;SDS011;1319;52.346;13.096;2022-11-20T11:51:33;10.23;;;6.73;;
2618;SDS011;1319;52.346;13.096;2022-11-20T11:54:00;10.47;;;6.73;;
2618;SDS011;1319;52.346;13.096;2022-11-20T11:56:26;12.00;;;6.93;;
2618;SDS011;1319;52.346;13.096;2022-11-20T11:58:53;12.50;;;6.40;;
2618;SDS011;1319;52.346;13.096;2022-11-20T12:01:32;10.47;;;6.20;;
2618;SDS011;1319;52.346;13.096;2022-11-20T12:06:25;8.97;;;5.00;;
2618;SDS011;1319;52.346;13.096;2022-11-20T12:08:53;8.37;;;5.17;;
2618;SDS011;1319;52.346;13.096;2022-11-20T12:11:29;9.07;;;5.10;;
2618;SDS011;1319;52.346;13.096;2022-11-20T12:14:03;7.03;;;4.93;;
2618;SDS011;1319;52.346;13.096;2022-11-20T12:16:30;8.47;;;5.40;;
2618;SDS011;1319;52.346;13.096;2022-11-20T12:18:58;8.23;;;5.40;;
2618;SDS011;1319;52.346;13.096;2022-11-20T12:29:10;9.00;;;6.00;;
2618;SDS011;1319;52.346;13.096;2022-11-20T12:41:51;12.37;;;7.10;;
2618;SDS011;1319;52.346;13.096;2022-11-20T12:48:14;12.67;;;7.23;;
2618;SDS011;1319;52.346;13.096;2022-11-20T12:58:00;12.73;;;8.00;;
2618;SDS011;1319;52.346;13.096;2022-11-20T13:00:29;14.03;;;7.80;;
2618;SDS011;1319;52.346;13.096;2022-11-20T13:08:22;14.93;;;7.93;;
2618;SDS011;1319;52.346;13.096;2022-11-20T13:15:50;14.77;;;7.70;;
2618;SDS011;1319;52.346;13.096;2022-11-20T13:18:18;15.13;;;6.87;;
2618;SDS011;1319;52.346;13.096;2022-11-20T13:20:44;14.53;;;7.80;;
2618;SDS011;1319;52.346;13.096;2022-11-20T13:23:10;14.00;;;7.60;;
2618;SDS011;1319;52.346;13.096;2022-11-20T13:25:36;14.70;;;7.80;;
2618;SDS011;1319;52.346;13.096;2022-11-20T13:28:23;13.77;;;7.73;;
2618;SDS011;1319;52.346;13.096;2022-11-20T13:30:50;15.67;;;7.97;;
2618;SDS011;1319;52.346;13.096;2022-11-20T13:33:27;13.17;;;7.60;;
2618;SDS011;1319;52.346;13.096;2022-11-20T13:35:58;13.83;;;8.50;;
2618;SDS011;1319;52.346;13.096;2022-11-20T13:38:24;12.57;;;8.17;;
2618;SDS011;1319;52.346;13.096;2022-11-20T13:40:53;11.37;;;7.23;;
2618;SDS011;1319;52.346;13.096;2022-11-20T13:43:33;13.80;;;7.63;;
2618;SDS011;1319;52.346;13.096;2022-11-20T13:46:04;14.10;;;7.83;;
2618;SDS011;1319;52.346;13.096;2022-11-20T13:48:31;13.23;;;8.00;;
2618;SDS011;1319;52.346;13.096;2022-11-20T13:56:34;15.70;;;8.60;;
2618;SDS011;1319;52.346;13.096;2022-11-20T14:01:20;15.30;;;9.10;;
2618;SDS011;1319;52.346;13.096;2022-11-20T14:03:46;14.40;;;8.93;;
2618;SDS011;1319;52.346;13.096;2022-11-20T14:06:13;13.27;;;8.23;;
2618;SDS011;1319;52.346;13.096;2022-11-20T14:08:45;13.83;;;8.60;;
2618;SDS011;1319;52.346;13.096;2022-11-20T14:13:39;14.77;;;8.30;;
2618;SDS011;1319;52.346;13.096;2022-11-20T14:16:04;14.67;;;9.13;;
2618;SDS011;1319;52.346;13.096;2022-11-20T14:18:29;15.83;;;9.30;;
2618;SDS011;1319;52.346;13.096;2022-11-20T14:20:55;16.63;;;9.33;;
2618;SDS011;1319;52.346;13.096;2022-11-20T14:23:26;18.23;;;9.40;;
2618;SDS011;1319;52.346;13.096;2022-11-20T14:25:52;17.03;;;9.60;;
2618;SDS011;1319;52.346;13.096;2022-11-20T14:28:24;20.40;;;9.80;;
2618;SDS011;1319;52.346;13.096;2022-11-20T14:30:50;16.27;;;9.40;;
2618;SDS011;1319;52.346;13.096;2022-11-20T14:33:15;16.87;;;9.13;;
2618;SDS011;1319;52.346;13.096;2022-11-20T14:35:45;20.23;;;10.10;;
2618;SDS011;1319;52.346;13.096;2022-11-20T14:38:15;17.13;;;9.53;;
2618;SDS011;1319;52.346;13.096;2022-11-20T14:40:41;17.93;;;9.87;;
2618;SDS011;1319;52.346;13.096;2022-11-20T14:45:41;17.63;;;9.70;;
2618;SDS011;1319;52.346;13.096;2022-11-20T14:48:08;17.70;;;9.53;;
2618;SDS011;1319;52.346;13.096;2022-11-20T14:50:34;18.10;;;9.00;;
2618;SDS011;1319;52.346;13.096;2022-11-20T14:53:00;17.17;;;9.43;;
2618;SDS011;1319;52.346;13.096;2022-11-20T14:57:54;18.00;;;9.37;;
2618;SDS011;1319;52.346;13.096;2022-11-20T15:00:21;18.30;;;9.10;;
2618;SDS011;1319;52.346;13.096;2022-11-20T15:02:50;18.70;;;9.67;;
2618;SDS011;1319;52.346;13.096;2022-11-20T15:05:16;19.20;;;9.17;;
2618;SDS011;1319;52.346;13.096;2022-11-20T15:07:46;19.03;;;9.70;;
2618;SDS011;1319;52.346;13.096;2022-11-20T15:15:20;19.53;;;10.40;;
2618;SDS011;1319;52.346;13.096;2022-11-20T15:17:46;22.97;;;9.87;;
2618;SDS011;1319;52.346;13.096;2022-11-20T15:20:11;16.77;;;9.63;;
2618;SDS011;1319;52.346;13.096;2022-11-20T15:22:38;15.83;;;9.33;;
2618;SDS011;1319;52.346;13.096;2022-11-20T15:25:13;20.37;;;10.17;;
2618;SDS011;1319;52.346;13.096;2022-11-20T15:27:39;24.67;;;10.30;;
2618;SDS011;1319;52.346;13.096;2022-11-20T15:30:11;20.70;;;9.90;;
2618;SDS011;1319;52.346;13.096;2022-11-20T15:32:37;22.53;;;10.73;;
2618;SDS011;1319;52.346;13.096;2022-11-20T15:35:02;18.10;;;9.53;;
2618;SDS011;1319;52.346;13.096;2022-11-20T15:37:27;20.13;;;9.47;;
2618;SDS011;1319;52.346;13.096;2022-11-20T15:39:52;22.37;;;9.73;;
2618;SDS011;1319;52.346;13.096;2022-11-20T15:42:18;18.80;;;10.03;;
2618;SDS011;1319;52.346;13.096;2022-11-20T15:44:43;18.50;;;9.80;;
2618;SDS011;1319;52.346;13.096;2022-11-20T15:47:08;20.83;;;10.17;;
2618;SDS011;1319;52.346;13.096;2022-11-20T15:49:35;22.27;;;10.23;;
2618;SDS011;1319;52.346;13.096;2022-11-20T15:52:00;20.40;;;10.53;;
2618;SDS011;1319;52.346;13.096;2022-11-20T15:54:26;17.00;;;9.53;;
2618;SDS011;1319;52.346;13.096;2022-11-20T15:56:51;16.93;;;8.47;;
2618;SDS011;1319;52.346;13.096;2022-11-20T15:59:19;19.50;;;9.37;;
2618;SDS011;1319;52.346;13.096;2022-11-20T16:01:45;21.97;;;9.47;;
2618;SDS011;1319;52.346;13.096;2022-11-20T16:04:11;19.07;;;9.07;;
2618;SDS011;1319;52.346;13.096;2022-11-20T16:06:37;17.30;;;9.00;;
2618;SDS011;1319;52.346;13.096;2022-11-20T16:09:02;15.97;;;8.90;;
2618;SDS011;1319;52.346;13.096;2022-11-20T16:11:27;14.33;;;8.70;;
2618;SDS011;1319;52.346;13.096;2022-11-20T16:13:53;15.40;;;8.77;;
2618;SDS011;1319;52.346;13.096;2022-11-20T16:16:37;15.47;;;8.80;;
2618;SDS011;1319;52.346;13.096;2022-11-20T16:19:04;19.80;;;9.33;;
2618;SDS011;1319;52.346;13.096;2022-11-20T16:21:29;16.97;;;9.43;;
2618;SDS011;1319;52.346;13.096;2022-11-20T16:24:04;16.80;;;8.63;;
2618;SDS011;1319;52.346;13.096;2022-11-20T16:26:30;18.23;;;9.27;;